Alapuzha, India

6:06 PM IST on November 01, 2014 (GMT +0530)
Cochin International | Change Station
CLOSE
Current Station
Airport
Location: COCHIN INTL,
Elevation: 26 ft
Nearby Weather Stations

Elev 26 ft 10.15 °N, 76.40 °E | Updated 36 minutes ago

Light Thunderstorms and Rain
Light Thunderstorm Rain
84 °F
Feels Like 94 °F
N
8
Wind Variable Wind from North

Today
High -- | Low -- °F
--% Chance of Precip.
Yesterday
High -- | Low -- °F
Precip. -- in
6:14 AM 6:01 PM
Waxing Gibbous, 66% visible
Pressure 29.80 in
Visibility 2.2 miles
Clouds Scattered Clouds 1000 ft
Few 2500 ft
Overcast 8000 ft
Heat Index 94 °F
Dew Point 77 °F
Humidity 79%
Rainfall 0.00 in
Snow Depth Not available.
UV 0 out of 12
Pollen Not available.
Air Quality Not available.
Flu Activity Not available.
METAR VOCI 011200Z 36007KT 3500 -TSRA SCT010 FEW025CB OVC080 29/25 Q1009 NOSIG

More Conditions Fewer Conditions

Pressure 29.80 in
Visibility 2.2 miles
Clouds Scattered Clouds 1000 ft
Few 2500 ft
Overcast 8000 ft
Heat Index 94 °F
Dew Point 77 °F
Humidity 79%
Rainfall 0.00 in
Snow Depth Not available.
UV 0 out of 12
Pollen Not available.
Air Quality Not available.
Flu Activity Not available.
METAR VOCI 011200Z 36007KT 3500 -TSRA SCT010 FEW025CB OVC080 29/25 Q1009 NOSIG

More Conditions Fewer Conditions

10-Day Weather Forecast

Almanac

Astronomy

Nov. 01, 2014 Rise Set
Actual Time
Civil Twilight
Nautical Twilight
Astronomical Twilight
Moon
Length of Visible Light
Length of Day
Tomorrow will be .
, % of the Moon is Illuminated

Today's Extremes

Country Highs Country Lows

Community

WunderPhotos

Upload Photos

1,766,912 photos uploaded!

WunderBlogs® & News

Nearby

Air Quality

  Air Quality AQ Index Pollutant
Not available.

Snow Depth

Station Depth Elevation

Earthquake Activity

City Distance Mag. Time & Date
Minimum magnitude displayed is 2.5.

Coastal Water Temperatures

Place Temperature

Nearby Weather Stations